MSR9905 BIKF-HECA
Flight info
| Callsign | MSR9905 |
|---|---|
| Flight time | N/A |
| Altitude | 41000 |
| Route | OSKUM3A OSKUM DCT MIKLA DCT GUNPA/N0466F410 DCT KLONN DCT KARLI P613 BAVTA P992 ATTUS DCT BUMIL DCT HDO DCT BITSI DCT XOMBA DCT KEROP DCT DONIV DCT NISVA DCT NIKTI UN127 IMR UG80 BANRO UN128 RDS UL995 VANZA DCT RASDA A16 MERPI |
| Aircraft | B38M/M-SDE1FGHILORVWXY/HB1 |
Departure
| Time | 2026-05-04 03:03 |
|---|---|
| Airport | Keflavik International Airport (BIKF) |
Arrival
| Time | N/A |
|---|---|
| Airport | Cairo International Airport (HECA) |
| Time | Latitude | Longitude | Altitude | Speed | Heading |
|---|---|---|---|---|---|
| 2026-05-04 02:44 | 63.99239 | -22.62900 | 160 ft | 0 kts | 270° |
| 2026-05-04 02:53 | 63.99239 | -22.62894 | 145 ft | 3 kts | 270° |
| 2026-05-04 02:53 | 63.99241 | -22.62834 | 145 ft | 4 kts | 263° |
| 2026-05-04 02:53 | 63.99246 | -22.62775 | 145 ft | 4 kts | 246° |
| 2026-05-04 02:54 | 63.99259 | -22.62737 | 142 ft | 4 kts | 187° |
| 2026-05-04 02:54 | 63.99267 | -22.62742 | 142 ft | 1 kts | 138° |
| 2026-05-04 02:54 | 63.99269 | -22.62745 | 142 ft | 0 kts | 138° |
| 2026-05-04 02:56 | 63.99260 | -22.62727 | 145 ft | 7 kts | 138° |
| 2026-05-04 02:56 | 63.99190 | -22.62672 | 145 ft | 9 kts | 165° |
| 2026-05-04 02:57 | 63.99172 | -22.62506 | 145 ft | 16 kts | 90° |
| 2026-05-04 02:57 | 63.99173 | -22.62188 | 145 ft | 22 kts | 91° |
| 2026-05-04 02:57 | 63.99173 | -22.61829 | 146 ft | 23 kts | 90° |
| 2026-05-04 02:57 | 63.99173 | -22.61492 | 154 ft | 20 kts | 90° |
| 2026-05-04 02:58 | 63.99171 | -22.61202 | 160 ft | 16 kts | 97° |
| 2026-05-04 02:58 | 63.99092 | -22.61124 | 164 ft | 13 kts | 180° |
| 2026-05-04 02:58 | 63.99004 | -22.61126 | 166 ft | 13 kts | 180° |
| 2026-05-04 02:58 | 63.98897 | -22.61125 | 165 ft | 18 kts | 176° |
| 2026-05-04 02:59 | 63.98795 | -22.60935 | 168 ft | 25 kts | 176° |
| 2026-05-04 02:59 | 63.98560 | -22.60939 | 171 ft | 41 kts | 180° |
| 2026-05-04 02:59 | 63.98258 | -22.60941 | 167 ft | 46 kts | 180° |
| 2026-05-04 02:59 | 63.97941 | -22.60940 | 172 ft | 45 kts | 180° |
| 2026-05-04 03:00 | 63.97628 | -22.60941 | 170 ft | 45 kts | 180° |
| 2026-05-04 03:00 | 63.97311 | -22.60941 | 164 ft | 46 kts | 179° |
| 2026-05-04 03:00 | 63.96983 | -22.60942 | 152 ft | 48 kts | 180° |
| 2026-05-04 03:00 | 63.96637 | -22.60941 | 139 ft | 51 kts | 180° |
| 2026-05-04 03:01 | 63.96460 | -22.60834 | 139 ft | 19 kts | 94° |
| 2026-05-04 03:01 | 63.96470 | -22.60577 | 147 ft | 14 kts | 50° |
| 2026-05-04 03:01 | 63.96510 | -22.60545 | 148 ft | 0 kts | 1° |
| 2026-05-04 03:02 | 63.96570 | -22.60544 | 150 ft | 36 kts | 0° |
| 2026-05-04 03:03 | 63.97085 | -22.60546 | 164 ft | 110 kts | 359° |
| 2026-05-04 03:03 | 63.98062 | -22.60562 | 241 ft | 165 kts | 360° |
| 2026-05-04 03:03 | 63.99297 | -22.60499 | 852 ft | 178 kts | 358° |
| 2026-05-04 03:03 | 64.00472 | -22.60510 | 2188 ft | 168 kts | 358° |
| 2026-05-04 03:04 | 64.01681 | -22.60520 | 2922 ft | 174 kts | 358° |
| 2026-05-04 03:04 | 64.02893 | -22.60526 | 3749 ft | 176 kts | 357° |
| 2026-05-04 03:04 | 64.04150 | -22.60531 | 4434 ft | 185 kts | 357° |
| 2026-05-04 03:04 | 64.05429 | -22.60491 | 5258 ft | 188 kts | 4° |
| 2026-05-04 03:05 | 64.06680 | -22.59205 | 5759 ft | 213 kts | 40° |
| 2026-05-04 03:05 | 64.07463 | -22.56155 | 6323 ft | 238 kts | 73° |
| 2026-05-04 03:05 | 64.07466 | -22.52208 | 6823 ft | 263 kts | 100° |
| 2026-05-04 03:05 | 64.07056 | -22.47994 | 7327 ft | 281 kts | 97° |
| 2026-05-04 03:06 | 64.06759 | -22.43489 | 7970 ft | 293 kts | 94° |
| 2026-05-04 03:06 | 64.06168 | -22.38974 | 8745 ft | 302 kts | 120° |
| 2026-05-04 03:06 | 64.04964 | -22.34980 | 9542 ft | 311 kts | 123° |
| 2026-05-04 03:06 | 64.03776 | -22.30751 | 10204 ft | 320 kts | 121° |
| 2026-05-04 03:07 | 64.02593 | -22.26298 | 10690 ft | 338 kts | 120° |
| 2026-05-04 03:07 | 64.01367 | -22.21543 | 11014 ft | 358 kts | 120° |
| 2026-05-04 03:07 | 64.00080 | -22.16491 | 11319 ft | 378 kts | 120° |
| 2026-05-04 03:07 | 63.98738 | -22.11183 | 11696 ft | 395 kts | 120° |
| 2026-05-04 03:08 | 63.97351 | -22.05677 | 12195 ft | 406 kts | 120° |
| 2026-05-04 03:08 | 63.95933 | -22.00055 | 12855 ft | 412 kts | 120° |
| 2026-05-04 03:08 | 63.94491 | -21.94339 | 13421 ft | 420 kts | 121° |
| 2026-05-04 03:08 | 63.93030 | -21.88568 | 14116 ft | 424 kts | 121° |
| 2026-05-04 03:09 | 63.91547 | -21.82719 | 14654 ft | 430 kts | 121° |
| 2026-05-04 03:09 | 63.90045 | -21.76812 | 15215 ft | 434 kts | 121° |
| 2026-05-04 03:09 | 63.88522 | -21.70840 | 15752 ft | 439 kts | 121° |
| 2026-05-04 03:09 | 63.86980 | -21.64816 | 16294 ft | 444 kts | 121° |
| 2026-05-04 03:10 | 63.85439 | -21.58806 | 16836 ft | 449 kts | 121° |
| 2026-05-04 03:10 | 63.83857 | -21.52656 | 17369 ft | 454 kts | 121° |
| 2026-05-04 03:10 | 63.82258 | -21.46456 | 17953 ft | 459 kts | 121° |
| 2026-05-04 03:10 | 63.80633 | -21.40176 | 18385 ft | 466 kts | 121° |
| 2026-05-04 03:11 | 63.78985 | -21.33821 | 18829 ft | 469 kts | 121° |
| 2026-05-04 03:11 | 63.77331 | -21.27440 | 19292 ft | 473 kts | 120° |
| 2026-05-04 03:11 | 63.76101 | -21.20533 | 19754 ft | 474 kts | 101° |
| 2026-05-04 03:11 | 63.75611 | -21.13177 | 20171 ft | 476 kts | 94° |
| 2026-05-04 03:12 | 63.75178 | -21.05722 | 20593 ft | 479 kts | 95° |
| 2026-05-04 03:12 | 63.74722 | -20.98278 | 21159 ft | 480 kts | 95° |
| 2026-05-04 03:12 | 63.74249 | -20.90769 | 21558 ft | 484 kts | 95° |
| 2026-05-04 03:12 | 63.73769 | -20.83233 | 22007 ft | 487 kts | 96° |
| 2026-05-04 03:13 | 63.73281 | -20.75637 | 22436 ft | 490 kts | 96° |
| 2026-05-04 03:13 | 63.72786 | -20.68001 | 22872 ft | 493 kts | 96° |
| 2026-05-04 03:13 | 63.72284 | -20.60308 | 23299 ft | 497 kts | 96° |
| 2026-05-04 03:13 | 63.71774 | -20.52571 | 23741 ft | 500 kts | 96° |
| 2026-05-04 03:14 | 63.71341 | -20.44754 | 23942 ft | 504 kts | 87° |
| 2026-05-04 03:14 | 63.71623 | -20.36960 | 24310 ft | 497 kts | 76° |
| 2026-05-04 03:14 | 63.72089 | -20.29173 | 24579 ft | 503 kts | 77° |
| 2026-05-04 03:14 | 63.72527 | -20.21329 | 24951 ft | 505 kts | 78° |
| 2026-05-04 03:15 | 63.72966 | -20.13440 | 25289 ft | 508 kts | 78° |
| 2026-05-04 03:15 | 63.73403 | -20.05514 | 25635 ft | 510 kts | 78° |
| 2026-05-04 03:15 | 63.73838 | -19.97544 | 25976 ft | 512 kts | 78° |
| 2026-05-04 03:15 | 63.74270 | -19.89545 | 26315 ft | 515 kts | 78° |
| 2026-05-04 03:16 | 63.74694 | -19.81610 | 26639 ft | 517 kts | 78° |
| 2026-05-04 03:16 | 63.75122 | -19.73524 | 27011 ft | 519 kts | 78° |
| 2026-05-04 03:16 | 63.75549 | -19.65388 | 27209 ft | 525 kts | 78° |
| 2026-05-04 03:16 | 63.75972 | -19.57197 | 27558 ft | 526 kts | 78° |
| 2026-05-04 03:17 | 63.76392 | -19.48959 | 27809 ft | 529 kts | 79° |
| 2026-05-04 03:17 | 63.76811 | -19.40683 | 28103 ft | 531 kts | 79° |
| 2026-05-04 03:17 | 63.77226 | -19.32370 | 28387 ft | 534 kts | 79° |
| 2026-05-04 03:17 | 63.77638 | -19.24026 | 28742 ft | 535 kts | 79° |
| 2026-05-04 03:18 | 63.78045 | -19.15678 | 29164 ft | 534 kts | 79° |
| 2026-05-04 03:18 | 63.78447 | -19.07330 | 29588 ft | 533 kts | 79° |
| 2026-05-04 03:18 | 63.78843 | -18.99015 | 29992 ft | 533 kts | 79° |
| 2026-05-04 03:18 | 63.79236 | -18.90675 | 30341 ft | 533 kts | 79° |
| 2026-05-04 03:19 | 63.79623 | -18.82317 | 30574 ft | 535 kts | 79° |
| 2026-05-04 03:19 | 63.80006 | -18.73953 | 30904 ft | 534 kts | 79° |
| 2026-05-04 03:19 | 63.80384 | -18.65604 | 31270 ft | 532 kts | 79° |
| 2026-05-04 03:19 | 63.80755 | -18.57292 | 31601 ft | 531 kts | 79° |
| 2026-05-04 03:20 | 63.81121 | -18.48979 | 31962 ft | 529 kts | 79° |
| 2026-05-04 03:20 | 63.81480 | -18.40717 | 32312 ft | 528 kts | 79° |
| 2026-05-04 03:20 | 63.81835 | -18.32450 | 32637 ft | 526 kts | 80° |
| 2026-05-04 03:20 | 63.82182 | -18.24223 | 32980 ft | 524 kts | 80° |
| 2026-05-04 03:21 | 63.82524 | -18.16048 | 33429 ft | 521 kts | 80° |
| 2026-05-04 03:21 | 63.82861 | -18.07870 | 33611 ft | 523 kts | 80° |
| 2026-05-04 03:21 | 63.83195 | -17.99650 | 33802 ft | 524 kts | 80° |
| 2026-05-04 03:21 | 63.83523 | -17.91442 | 34057 ft | 523 kts | 80° |
| 2026-05-04 03:22 | 63.83846 | -17.83240 | 34297 ft | 523 kts | 80° |
| 2026-05-04 03:22 | 63.84167 | -17.75032 | 34534 ft | 522 kts | 80° |
| 2026-05-04 03:22 | 63.84483 | -17.66861 | 34763 ft | 521 kts | 80° |
| 2026-05-04 03:22 | 63.84722 | -17.60080 | 34949 ft | 521 kts | 84° |
| 2026-05-04 03:23 | 63.84439 | -17.51871 | 35178 ft | 525 kts | 101° |
| 2026-05-04 03:23 | 63.83629 | -17.43809 | 35390 ft | 525 kts | 100° |
| 2026-05-04 03:23 | 63.82894 | -17.35694 | 35575 ft | 525 kts | 99° |
| 2026-05-04 03:23 | 63.82162 | -17.27583 | 35729 ft | 526 kts | 99° |
| 2026-05-04 03:24 | 63.81423 | -17.19466 | 35869 ft | 527 kts | 99° |
| 2026-05-04 03:24 | 63.80678 | -17.11346 | 36087 ft | 526 kts | 100° |
| 2026-05-04 03:24 | 63.79934 | -17.03264 | 36300 ft | 525 kts | 100° |
| 2026-05-04 03:24 | 63.79183 | -16.95186 | 36516 ft | 524 kts | 100° |
| 2026-05-04 03:25 | 63.78431 | -16.87136 | 36722 ft | 522 kts | 100° |
| 2026-05-04 03:25 | 63.77678 | -16.79124 | 36921 ft | 521 kts | 100° |
| 2026-05-04 03:25 | 63.76921 | -16.71117 | 37103 ft | 520 kts | 100° |
| 2026-05-04 03:25 | 63.76159 | -16.63129 | 37287 ft | 519 kts | 100° |
| 2026-05-04 03:26 | 63.75395 | -16.55152 | 37452 ft | 519 kts | 101° |
| 2026-05-04 03:26 | 63.74629 | -16.47210 | 37612 ft | 518 kts | 101° |
| 2026-05-04 03:26 | 63.73859 | -16.39271 | 37772 ft | 517 kts | 101° |
| 2026-05-04 03:26 | 63.73085 | -16.31356 | 37921 ft | 516 kts | 101° |
| 2026-05-04 03:27 | 63.72309 | -16.23450 | 38063 ft | 515 kts | 101° |
| 2026-05-04 03:27 | 63.71529 | -16.15570 | 38198 ft | 515 kts | 101° |
| 2026-05-04 03:27 | 63.70747 | -16.07699 | 38318 ft | 514 kts | 101° |
| 2026-05-04 03:27 | 63.69959 | -15.99835 | 38439 ft | 513 kts | 101° |
| 2026-05-04 03:28 | 63.69171 | -15.91995 | 38553 ft | 513 kts | 101° |
| 2026-05-04 03:28 | 63.68377 | -15.84159 | 38658 ft | 512 kts | 101° |
| 2026-05-04 03:28 | 63.67581 | -15.76344 | 38739 ft | 512 kts | 101° |
| 2026-05-04 03:29 | 63.65976 | -15.60726 | 38908 ft | 511 kts | 102° |
| 2026-05-04 03:29 | 63.64357 | -15.45155 | 39002 ft | 511 kts | 102° |
| 2026-05-04 03:30 | 63.62732 | -15.29696 | 39107 ft | 511 kts | 102° |
| 2026-05-04 03:30 | 63.61080 | -15.14167 | 39206 ft | 511 kts | 102° |
| 2026-05-04 03:31 | 63.59412 | -14.98656 | 39306 ft | 510 kts | 102° |
| 2026-05-04 03:31 | 63.57730 | -14.83188 | 39360 ft | 510 kts | 102° |
| 2026-05-04 03:32 | 63.56032 | -14.67746 | 39473 ft | 509 kts | 102° |
| 2026-05-04 03:32 | 63.54319 | -14.52341 | 39559 ft | 509 kts | 103° |
| 2026-05-04 03:33 | 63.52591 | -14.36966 | 39626 ft | 508 kts | 103° |
| 2026-05-04 03:33 | 63.50846 | -14.21606 | 39685 ft | 508 kts | 103° |
| 2026-05-04 03:34 | 63.49087 | -14.06282 | 39732 ft | 508 kts | 103° |
| 2026-05-04 03:34 | 63.47313 | -13.90986 | 39813 ft | 508 kts | 103° |
| 2026-05-04 03:35 | 63.45829 | -13.78317 | 39928 ft | 505 kts | 103° |
| 2026-05-04 03:35 | 63.44034 | -13.63134 | 39969 ft | 505 kts | 103° |
| 2026-05-04 03:36 | 63.42224 | -13.47977 | 39997 ft | 505 kts | 103° |
| 2026-05-04 03:36 | 63.40383 | -13.32725 | 39963 ft | 506 kts | 104° |
| 2026-05-04 03:37 | 63.38552 | -13.17689 | 39975 ft | 506 kts | 104° |
| 2026-05-04 03:37 | 63.36689 | -13.02552 | 40030 ft | 506 kts | 104° |
| 2026-05-04 03:38 | 63.34814 | -12.87468 | 40100 ft | 505 kts | 104° |
| 2026-05-04 03:38 | 63.32927 | -12.72433 | 40121 ft | 504 kts | 104° |
| 2026-05-04 03:39 | 63.31022 | -12.57405 | 40130 ft | 504 kts | 104° |
| 2026-05-04 03:39 | 63.29105 | -12.42417 | 40146 ft | 504 kts | 104° |
| 2026-05-04 03:40 | 63.27171 | -12.27442 | 40159 ft | 504 kts | 104° |
| 2026-05-04 03:40 | 63.25222 | -12.12499 | 40240 ft | 503 kts | 105° |
| 2026-05-04 03:41 | 63.23264 | -11.97617 | 40253 ft | 502 kts | 105° |
| 2026-05-04 03:41 | 63.21293 | -11.82782 | 40281 ft | 501 kts | 105° |
| 2026-05-04 03:42 | 63.19309 | -11.67986 | 40285 ft | 501 kts | 105° |
| 2026-05-04 03:42 | 63.17311 | -11.53212 | 40282 ft | 501 kts | 105° |
| 2026-05-04 03:43 | 63.15309 | -11.38544 | 40300 ft | 501 kts | 105° |
| 2026-05-04 03:43 | 63.13284 | -11.23844 | 40360 ft | 499 kts | 105° |
| 2026-05-04 03:44 | 63.11245 | -11.09173 | 40363 ft | 499 kts | 105° |
| 2026-05-04 03:44 | 63.09193 | -10.94533 | 40352 ft | 499 kts | 106° |
| 2026-05-04 03:45 | 63.07126 | -10.79915 | 40341 ft | 499 kts | 106° |
| 2026-05-04 03:45 | 63.05044 | -10.65322 | 40334 ft | 499 kts | 106° |
| 2026-05-04 03:46 | 63.02947 | -10.50744 | 40345 ft | 498 kts | 106° |
| 2026-05-04 03:46 | 63.00841 | -10.36232 | 40386 ft | 497 kts | 106° |
| 2026-05-04 03:47 | 62.98725 | -10.21769 | 40387 ft | 497 kts | 107° |
| 2026-05-04 03:47 | 62.96592 | -10.07317 | 40373 ft | 497 kts | 107° |
| 2026-05-04 03:48 | 62.94443 | -9.92885 | 40365 ft | 497 kts | 107° |
| 2026-05-04 03:48 | 62.92283 | -9.78484 | 40354 ft | 497 kts | 107° |
| 2026-05-04 03:49 | 62.90121 | -9.64193 | 40385 ft | 496 kts | 107° |
| 2026-05-04 03:49 | 62.87919 | -9.49758 | 40379 ft | 496 kts | 108° |
| 2026-05-04 03:50 | 62.85716 | -9.35434 | 40375 ft | 496 kts | 108° |
| 2026-05-04 03:50 | 62.83512 | -9.21218 | 40360 ft | 496 kts | 108° |
| 2026-05-04 03:51 | 62.81281 | -9.06935 | 40331 ft | 496 kts | 108° |
| 2026-05-04 03:51 | 62.79035 | -8.92684 | 40352 ft | 496 kts | 108° |
| 2026-05-04 03:52 | 62.76778 | -8.78464 | 40380 ft | 495 kts | 108° |
| 2026-05-04 03:52 | 62.74507 | -8.64275 | 40378 ft | 495 kts | 109° |
| 2026-05-04 03:53 | 62.72223 | -8.50114 | 40365 ft | 495 kts | 109° |
| 2026-05-04 03:53 | 62.69923 | -8.35966 | 40357 ft | 495 kts | 109° |
| 2026-05-04 03:54 | 62.67611 | -8.21845 | 40351 ft | 495 kts | 109° |
| 2026-05-04 03:54 | 62.65281 | -8.07736 | 40352 ft | 495 kts | 109° |
| 2026-05-04 03:55 | 62.62955 | -7.93749 | 40337 ft | 495 kts | 109° |
| 2026-05-04 03:55 | 62.60583 | -7.79596 | 40303 ft | 495 kts | 109° |
| 2026-05-04 03:56 | 62.58230 | -7.65659 | 40311 ft | 495 kts | 109° |
| 2026-05-04 03:56 | 62.55846 | -7.51653 | 40314 ft | 495 kts | 109° |
| 2026-05-04 03:57 | 62.53449 | -7.37667 | 40335 ft | 495 kts | 110° |
| 2026-05-04 03:57 | 62.51043 | -7.23729 | 40371 ft | 494 kts | 110° |
| 2026-05-04 03:58 | 62.47410 | -7.02883 | 40377 ft | 494 kts | 110° |
| 2026-05-04 03:58 | 62.44971 | -6.89016 | 40372 ft | 494 kts | 110° |
| 2026-05-04 03:59 | 62.42518 | -6.75169 | 40367 ft | 494 kts | 110° |
| 2026-05-04 03:59 | 62.40052 | -6.61349 | 40368 ft | 494 kts | 111° |
| 2026-05-04 04:00 | 62.37573 | -6.47558 | 40402 ft | 493 kts | 111° |
| 2026-05-04 04:00 | 62.35081 | -6.33792 | 40389 ft | 493 kts | 111° |
| 2026-05-04 04:01 | 62.32581 | -6.20072 | 40404 ft | 492 kts | 111° |
| 2026-05-04 04:01 | 62.30068 | -6.06385 | 40400 ft | 492 kts | 111° |
| 2026-05-04 04:02 | 62.27541 | -5.92719 | 40403 ft | 492 kts | 111° |
| 2026-05-04 04:02 | 62.25000 | -5.79070 | 40422 ft | 492 kts | 112° |
| 2026-05-04 04:03 | 62.22447 | -5.65447 | 40404 ft | 493 kts | 112° |
| 2026-05-04 04:03 | 62.19879 | -5.51842 | 40399 ft | 493 kts | 112° |
| 2026-05-04 04:04 | 62.17295 | -5.38246 | 40393 ft | 493 kts | 112° |
| 2026-05-04 04:04 | 62.14717 | -5.24773 | 40392 ft | 493 kts | 112° |
| 2026-05-04 04:05 | 62.12091 | -5.11146 | 40362 ft | 492 kts | 113° |
| 2026-05-04 04:05 | 62.09489 | -4.97733 | 40386 ft | 492 kts | 113° |
| 2026-05-04 04:06 | 62.06856 | -4.84248 | 40382 ft | 492 kts | 114° |
| 2026-05-04 04:06 | 62.04210 | -4.70790 | 40382 ft | 492 kts | 114° |
| 2026-05-04 04:07 | 62.01548 | -4.57340 | 40386 ft | 492 kts | 114° |
| 2026-05-04 04:07 | 61.98877 | -4.43937 | 40390 ft | 492 kts | 114° |
| 2026-05-04 04:08 | 61.96190 | -4.30538 | 40398 ft | 492 kts | 114° |
| 2026-05-04 04:08 | 61.93490 | -4.17165 | 40392 ft | 493 kts | 115° |
| 2026-05-04 04:09 | 61.90777 | -4.03816 | 40392 ft | 493 kts | 115° |
| 2026-05-04 04:09 | 61.88052 | -3.90491 | 40391 ft | 493 kts | 115° |
| 2026-05-04 04:10 | 61.85315 | -3.77191 | 40392 ft | 492 kts | 115° |
| 2026-05-04 04:10 | 61.82565 | -3.63926 | 40408 ft | 492 kts | 115° |
| 2026-05-04 04:11 | 61.79808 | -3.50701 | 40411 ft | 492 kts | 116° |
| 2026-05-04 04:11 | 61.77031 | -3.37471 | 40384 ft | 493 kts | 116° |
| 2026-05-04 04:12 | 61.74239 | -3.24252 | 40385 ft | 493 kts | 116° |
| 2026-05-04 04:12 | 61.71437 | -3.11069 | 40389 ft | 493 kts | 116° |
| 2026-05-04 04:13 | 61.68619 | -2.97896 | 40396 ft | 493 kts | 116° |
| 2026-05-04 04:13 | 61.65792 | -2.84765 | 40402 ft | 493 kts | 116° |
| 2026-05-04 04:14 | 61.62950 | -2.71646 | 40392 ft | 493 kts | 116° |
| 2026-05-04 04:14 | 61.60096 | -2.58550 | 40388 ft | 493 kts | 116° |
| 2026-05-04 04:15 | 61.57228 | -2.45473 | 40390 ft | 493 kts | 117° |
| 2026-05-04 04:15 | 61.54349 | -2.32427 | 40392 ft | 493 kts | 117° |
| 2026-05-04 04:16 | 61.51476 | -2.19492 | 40396 ft | 493 kts | 117° |
| 2026-05-04 04:16 | 61.48575 | -2.06506 | 40391 ft | 493 kts | 117° |
| 2026-05-04 04:17 | 61.45657 | -1.93524 | 40376 ft | 493 kts | 117° |
| 2026-05-04 04:17 | 61.42730 | -1.80582 | 40376 ft | 492 kts | 117° |
| 2026-05-04 04:18 | 61.39792 | -1.67671 | 40378 ft | 492 kts | 117° |
| 2026-05-04 04:18 | 61.36844 | -1.54789 | 40372 ft | 492 kts | 117° |
| 2026-05-04 04:19 | 61.33886 | -1.41923 | 40374 ft | 492 kts | 117° |
| 2026-05-04 04:19 | 61.30921 | -1.29096 | 40360 ft | 492 kts | 117° |
| 2026-05-04 04:20 | 61.27944 | -1.16288 | 40358 ft | 491 kts | 117° |
| 2026-05-04 04:20 | 61.24958 | -1.03517 | 40357 ft | 491 kts | 117° |
| 2026-05-04 04:21 | 61.21961 | -0.90767 | 40358 ft | 491 kts | 118° |
| 2026-05-04 04:21 | 61.18955 | -0.78048 | 40347 ft | 491 kts | 118° |
| 2026-05-04 04:22 | 61.15938 | -0.65355 | 40346 ft | 491 kts | 118° |
| 2026-05-04 04:22 | 61.12910 | -0.52685 | 40350 ft | 491 kts | 118° |
| 2026-05-04 04:23 | 61.09889 | -0.40112 | 40351 ft | 491 kts | 118° |
| 2026-05-04 04:23 | 61.06840 | -0.27492 | 40350 ft | 491 kts | 118° |
| 2026-05-04 04:24 | 61.03778 | -0.14903 | 40320 ft | 491 kts | 119° |
| 2026-05-04 04:24 | 61.00537 | -0.02552 | 40283 ft | 487 kts | 131° |
| 2026-05-04 04:25 | 60.98200 | 0.02395 | 40224 ft | 478 kts | 148° |
| 2026-05-04 04:25 | 60.95376 | 0.05849 | 40146 ft | 471 kts | 160° |
| 2026-05-04 04:25 | 60.92452 | 0.08987 | 40020 ft | 477 kts | 155° |
| 2026-05-04 04:25 | 60.89557 | 0.12358 | 39963 ft | 479 kts | 155° |
| 2026-05-04 04:26 | 60.84739 | 0.18005 | 39949 ft | 481 kts | 155° |
| 2026-05-04 04:26 | 60.78930 | 0.24805 | 39983 ft | 481 kts | 155° |
| 2026-05-04 04:27 | 60.73120 | 0.31578 | 40035 ft | 480 kts | 155° |
| 2026-05-04 04:27 | 60.67287 | 0.38350 | 40145 ft | 479 kts | 155° |
| 2026-05-04 04:28 | 60.61535 | 0.44999 | 40188 ft | 478 kts | 155° |
| 2026-05-04 04:28 | 60.55742 | 0.51668 | 40232 ft | 478 kts | 155° |
| 2026-05-04 04:29 | 60.49947 | 0.58312 | 40267 ft | 478 kts | 155° |
| 2026-05-04 04:29 | 60.44154 | 0.64926 | 40273 ft | 478 kts | 155° |
| 2026-05-04 04:30 | 60.38370 | 0.71504 | 40327 ft | 477 kts | 155° |
| 2026-05-04 04:30 | 60.32579 | 0.78060 | 40344 ft | 477 kts | 155° |
| 2026-05-04 04:31 | 60.26784 | 0.84595 | 40372 ft | 477 kts | 155° |
| 2026-05-04 04:31 | 60.21000 | 0.91091 | 40399 ft | 477 kts | 155° |
| 2026-05-04 04:32 | 60.15206 | 0.97573 | 40409 ft | 476 kts | 155° |
| 2026-05-04 04:32 | 60.09431 | 1.04005 | 40507 ft | 474 kts | 155° |
| 2026-05-04 04:33 | 60.03668 | 1.10399 | 40520 ft | 474 kts | 155° |
| 2026-05-04 04:33 | 59.97903 | 1.16770 | 40536 ft | 473 kts | 155° |
| 2026-05-04 04:34 | 59.92138 | 1.23115 | 40538 ft | 473 kts | 156° |
| 2026-05-04 04:34 | 59.86366 | 1.29444 | 40522 ft | 473 kts | 156° |
| 2026-05-04 04:35 | 59.80598 | 1.35742 | 40534 ft | 473 kts | 156° |
| 2026-05-04 04:35 | 59.74825 | 1.42020 | 40539 ft | 473 kts | 156° |
| 2026-05-04 04:36 | 59.69046 | 1.48279 | 40551 ft | 473 kts | 156° |
| 2026-05-04 04:36 | 59.63267 | 1.54515 | 40559 ft | 473 kts | 156° |
| 2026-05-04 04:37 | 59.51723 | 1.66897 | 40622 ft | 471 kts | 156° |
| 2026-05-04 04:38 | 59.45964 | 1.73037 | 40641 ft | 470 kts | 156° |
| 2026-05-04 04:38 | 59.43098 | 1.76085 | 40766 ft | 466 kts | 156° |
| 2026-05-04 04:38 | 59.40254 | 1.79102 | 40907 ft | 462 kts | 156° |
| 2026-05-04 04:39 | 59.34604 | 1.85080 | 40886 ft | 461 kts | 156° |
| 2026-05-04 04:39 | 59.28974 | 1.91015 | 40873 ft | 458 kts | 156° |
| 2026-05-04 04:40 | 59.23377 | 1.96892 | 40897 ft | 456 kts | 156° |
| 2026-05-04 04:40 | 59.17805 | 2.02721 | 40896 ft | 453 kts | 156° |
| 2026-05-04 04:41 | 59.12259 | 2.08501 | 40894 ft | 451 kts | 156° |
| 2026-05-04 04:41 | 59.06742 | 2.14231 | 40893 ft | 448 kts | 156° |
| 2026-05-04 04:42 | 59.01293 | 2.19868 | 40892 ft | 445 kts | 156° |
| 2026-05-04 04:42 | 58.95855 | 2.25475 | 40903 ft | 441 kts | 156° |
| 2026-05-04 04:43 | 58.90461 | 2.31016 | 40897 ft | 437 kts | 156° |
| 2026-05-04 04:43 | 58.85111 | 2.36491 | 40887 ft | 433 kts | 156° |
| 2026-05-04 04:44 | 58.79823 | 2.41887 | 40891 ft | 427 kts | 157° |
| 2026-05-04 04:44 | 58.74596 | 2.47199 | 40891 ft | 422 kts | 157° |
| 2026-05-04 04:45 | 58.69445 | 2.52417 | 40878 ft | 415 kts | 157° |
| 2026-05-04 04:47 | 58.52259 | 2.69712 | 40870 ft | 377 kts | 158° |
| 2026-05-04 04:47 | 58.47719 | 2.74249 | 40843 ft | 358 kts | 158° |
| 2026-05-04 04:47 | 58.45507 | 2.76449 | 40525 ft | 361 kts | 158° |
| 2026-05-04 04:48 | 58.43230 | 2.78685 | 39801 ft | 373 kts | 158° |
| 2026-05-04 04:49 | 58.34061 | 2.87497 | 39255 ft | 350 kts | 159° |
| 2026-05-04 04:49 | 58.31887 | 2.89556 | 39055 ft | 352 kts | 159° |
| 2026-05-04 04:49 | 58.29654 | 2.91634 | 38586 ft | 362 kts | 160° |
| 2026-05-04 04:49 | 58.27367 | 2.93724 | 38135 ft | 366 kts | 160° |
| 2026-05-04 04:50 | 58.22847 | 2.97783 | 38281 ft | 349 kts | 161° |
| 2026-05-04 04:50 | 58.18468 | 3.01624 | 37865 ft | 351 kts | 161° |
| 2026-05-04 04:51 | 58.16211 | 3.03537 | 37408 ft | 358 kts | 161° |
| 2026-05-04 04:51 | 58.13930 | 3.05427 | 37274 ft | 356 kts | 162° |
| 2026-05-04 04:51 | 58.11711 | 3.07235 | 37410 ft | 346 kts | 162° |
| 2026-05-04 04:51 | 58.09497 | 3.09006 | 37519 ft | 338 kts | 163° |
| 2026-05-04 04:52 | 58.07352 | 3.10674 | 37316 ft | 339 kts | 163° |
| 2026-05-04 04:52 | 58.05133 | 3.12340 | 36929 ft | 347 kts | 164° |
| 2026-05-04 04:52 | 58.02870 | 3.13979 | 36695 ft | 349 kts | 165° |
| 2026-05-04 04:52 | 58.00613 | 3.15566 | 36749 ft | 342 kts | 165° |
| 2026-05-04 04:53 | 57.96222 | 3.18544 | 36694 ft | 335 kts | 166° |
| 2026-05-04 04:53 | 57.94000 | 3.19979 | 36382 ft | 341 kts | 167° |
| 2026-05-04 04:53 | 57.91736 | 3.21388 | 36163 ft | 343 kts | 168° |
| 2026-05-04 04:54 | 57.87262 | 3.24050 | 36230 ft | 331 kts | 168° |
| 2026-05-04 04:54 | 57.82864 | 3.26490 | 35940 ft | 333 kts | 169° |
| 2026-05-04 04:55 | 57.80618 | 3.27655 | 35731 ft | 336 kts | 170° |
| 2026-05-04 04:55 | 57.78363 | 3.28775 | 35692 ft | 333 kts | 171° |
| 2026-05-04 04:55 | 57.73938 | 3.30845 | 35696 ft | 325 kts | 172° |
| 2026-05-04 04:56 | 57.71725 | 3.31811 | 35502 ft | 329 kts | 173° |
| 2026-05-04 04:56 | 57.69478 | 3.32740 | 35317 ft | 332 kts | 173° |
| 2026-05-04 04:56 | 57.64997 | 3.34457 | 35317 ft | 324 kts | 175° |
| 2026-05-04 04:57 | 57.60600 | 3.35968 | 35086 ft | 325 kts | 175° |
| 2026-05-04 04:57 | 57.58363 | 3.36655 | 34964 ft | 326 kts | 176° |
| 2026-05-04 04:57 | 57.56128 | 3.37287 | 34966 ft | 322 kts | 177° |
| 2026-05-04 04:58 | 57.51726 | 3.38384 | 34894 ft | 319 kts | 179° |
| 2026-05-04 04:58 | 57.49508 | 3.38856 | 34727 ft | 322 kts | 179° |
| 2026-05-04 04:58 | 57.47274 | 3.39276 | 34632 ft | 323 kts | 180° |
| 2026-05-04 04:59 | 57.42849 | 3.39967 | 34654 ft | 316 kts | 181° |
| 2026-05-04 04:59 | 57.38446 | 3.40459 | 34427 ft | 319 kts | 183° |
| 2026-05-04 05:00 | 57.34011 | 3.40823 | 34335 ft | 318 kts | 182° |
| 2026-05-04 05:01 | 57.27478 | 3.41608 | 34268 ft | 313 kts | 181° |
| 2026-05-04 05:01 | 57.25292 | 3.41905 | 34135 ft | 316 kts | 181° |
| 2026-05-04 05:01 | 57.23099 | 3.42207 | 34078 ft | 316 kts | 181° |
| 2026-05-04 05:02 | 57.18751 | 3.42804 | 34088 ft | 311 kts | 181° |
| 2026-05-04 05:02 | 57.14406 | 3.43365 | 33881 ft | 315 kts | 181° |
| 2026-05-04 05:03 | 57.10056 | 3.43861 | 33885 ft | 310 kts | 182° |
| 2026-05-04 05:04 | 57.01426 | 3.44559 | 33715 ft | 307 kts | 183° |
| 2026-05-04 05:04 | 56.97154 | 3.44719 | 33565 ft | 309 kts | 184° |
| 2026-05-04 05:06 | 56.82233 | 3.44177 | 33334 ft | 304 kts | 188° |
| 2026-05-04 05:06 | 56.80156 | 3.43966 | 33314 ft | 303 kts | 189° |
| 2026-05-04 05:07 | 56.75953 | 3.43419 | 33221 ft | 302 kts | 189° |
| 2026-05-04 05:07 | 56.73869 | 3.43085 | 33226 ft | 300 kts | 190° |
| 2026-05-04 05:07 | 56.71792 | 3.42711 | 33182 ft | 300 kts | 191° |
| 2026-05-04 05:09 | 56.55343 | 3.38320 | 32942 ft | 296 kts | 196° |
| 2026-05-04 05:09 | 56.53320 | 3.37604 | 32924 ft | 296 kts | 197° |
| 2026-05-04 05:10 | 56.51307 | 3.36848 | 32882 ft | 296 kts | 197° |
| 2026-05-04 05:10 | 56.49301 | 3.36047 | 32874 ft | 295 kts | 198° |
| 2026-05-04 05:10 | 56.47308 | 3.35204 | 32862 ft | 294 kts | 198° |
| 2026-05-04 05:10 | 56.45323 | 3.34318 | 32829 ft | 294 kts | 199° |
| 2026-05-04 05:11 | 56.43344 | 3.33387 | 32796 ft | 294 kts | 200° |
| 2026-05-04 05:11 | 56.41374 | 3.32415 | 32781 ft | 293 kts | 200° |
| 2026-05-04 05:11 | 56.39419 | 3.31408 | 32776 ft | 292 kts | 201° |
| 2026-05-04 05:11 | 56.37470 | 3.30360 | 32756 ft | 292 kts | 202° |
| 2026-05-04 05:12 | 56.35532 | 3.29276 | 32723 ft | 292 kts | 202° |
| 2026-05-04 05:12 | 56.33599 | 3.28151 | 32696 ft | 292 kts | 203° |
| 2026-05-04 05:12 | 56.31679 | 3.26991 | 32690 ft | 291 kts | 204° |
| 2026-05-04 05:12 | 56.29772 | 3.25790 | 32687 ft | 290 kts | 205° |
| 2026-05-04 05:13 | 56.27881 | 3.24546 | 32656 ft | 290 kts | 205° |
| 2026-05-04 05:13 | 56.25995 | 3.23250 | 32614 ft | 290 kts | 206° |
| 2026-05-04 05:13 | 56.24755 | 3.22366 | 32597 ft | 289 kts | 206° |
| 2026-05-04 05:13 | 56.22904 | 3.20994 | 32644 ft | 287 kts | 207° |
| 2026-05-04 05:14 | 56.21076 | 3.19579 | 32650 ft | 286 kts | 208° |
| 2026-05-04 05:14 | 56.19259 | 3.18113 | 32592 ft | 287 kts | 209° |
| 2026-05-04 05:14 | 56.17444 | 3.16589 | 32546 ft | 288 kts | 210° |
| 2026-05-04 05:14 | 56.15650 | 3.15024 | 32554 ft | 286 kts | 211° |
| 2026-05-04 05:15 | 56.13878 | 3.13424 | 32579 ft | 284 kts | 212° |
| 2026-05-04 05:15 | 56.12126 | 3.11788 | 32547 ft | 285 kts | 212° |
| 2026-05-04 05:15 | 56.10378 | 3.10098 | 32487 ft | 286 kts | 213° |
| 2026-05-04 05:15 | 56.08640 | 3.08363 | 32471 ft | 286 kts | 214° |
| 2026-05-04 05:16 | 56.06923 | 3.06597 | 32498 ft | 283 kts | 215° |
| 2026-05-04 05:16 | 56.05229 | 3.04801 | 32509 ft | 283 kts | 216° |
| 2026-05-04 05:16 | 56.03551 | 3.02970 | 32475 ft | 284 kts | 216° |
| 2026-05-04 05:16 | 56.01878 | 3.01089 | 32426 ft | 284 kts | 217° |
| 2026-05-04 05:17 | 56.00221 | 2.99174 | 32436 ft | 283 kts | 218° |
| 2026-05-04 05:17 | 55.98588 | 2.97234 | 32462 ft | 281 kts | 218° |
| 2026-05-04 05:17 | 55.96974 | 2.95266 | 32446 ft | 281 kts | 219° |
| 2026-05-04 05:17 | 55.95371 | 2.93255 | 32406 ft | 282 kts | 220° |
| 2026-05-04 05:18 | 55.93779 | 2.91205 | 32388 ft | 282 kts | 220° |
| 2026-05-04 05:18 | 55.92206 | 2.89126 | 32396 ft | 281 kts | 221° |
| 2026-05-04 05:18 | 55.90653 | 2.87020 | 32404 ft | 280 kts | 222° |
| 2026-05-04 05:18 | 55.89119 | 2.84886 | 32383 ft | 280 kts | 223° |
| 2026-05-04 05:19 | 55.87596 | 2.82711 | 32344 ft | 281 kts | 223° |
| 2026-05-04 05:19 | 55.86107 | 2.80538 | 32303 ft | 281 kts | 224° |
| 2026-05-04 05:19 | 55.84582 | 2.78326 | 32204 ft | 285 kts | 224° |
| 2026-05-04 05:19 | 55.83035 | 2.76109 | 32186 ft | 285 kts | 223° |
| 2026-05-04 05:20 | 55.81491 | 2.73919 | 32253 ft | 282 kts | 223° |
| 2026-05-04 05:20 | 55.79957 | 2.71761 | 32285 ft | 281 kts | 223° |
| 2026-05-04 05:20 | 55.78416 | 2.69599 | 32223 ft | 283 kts | 223° |
| 2026-05-04 05:20 | 55.76867 | 2.67420 | 32169 ft | 285 kts | 223° |
| 2026-05-04 05:21 | 55.75315 | 2.65233 | 32185 ft | 283 kts | 223° |
| 2026-05-04 05:21 | 55.73785 | 2.63055 | 32221 ft | 282 kts | 223° |
| 2026-05-04 05:21 | 55.72264 | 2.60859 | 32201 ft | 282 kts | 224° |
| 2026-05-04 05:21 | 55.70747 | 2.58628 | 32146 ft | 284 kts | 224° |
| 2026-05-04 05:22 | 55.69238 | 2.56368 | 32144 ft | 284 kts | 225° |
| 2026-05-04 05:22 | 55.67748 | 2.54098 | 32182 ft | 282 kts | 225° |
| 2026-05-04 05:22 | 55.66278 | 2.51816 | 32194 ft | 281 kts | 226° |
| 2026-05-04 05:22 | 55.64820 | 2.49507 | 32153 ft | 282 kts | 226° |
| 2026-05-04 05:23 | 55.63368 | 2.47157 | 32122 ft | 283 kts | 227° |
| 2026-05-04 05:23 | 55.61935 | 2.44788 | 32147 ft | 281 kts | 227° |
| 2026-05-04 05:23 | 55.60524 | 2.42407 | 32177 ft | 280 kts | 228° |
| 2026-05-04 05:23 | 55.59130 | 2.40003 | 32162 ft | 280 kts | 229° |
| 2026-05-04 05:24 | 55.57749 | 2.37566 | 32118 ft | 281 kts | 230° |
| 2026-05-04 05:24 | 55.56380 | 2.35096 | 32111 ft | 281 kts | 230° |
| 2026-05-04 05:24 | 55.55035 | 2.32613 | 32139 ft | 279 kts | 231° |
| 2026-05-04 05:24 | 55.53709 | 2.30108 | 32151 ft | 279 kts | 231° |
| 2026-05-04 05:25 | 55.52402 | 2.27581 | 32127 ft | 279 kts | 232° |
| 2026-05-04 05:25 | 55.51110 | 2.25021 | 32100 ft | 280 kts | 233° |
| 2026-05-04 05:25 | 55.49836 | 2.22431 | 32104 ft | 279 kts | 233° |
| 2026-05-04 05:25 | 55.48575 | 2.19842 | 32055 ft | 281 kts | 232° |
| 2026-05-04 05:26 | 55.47264 | 2.17248 | 31974 ft | 285 kts | 231° |
| 2026-05-04 05:26 | 55.45920 | 2.14684 | 31970 ft | 285 kts | 230° |
| 2026-05-04 05:26 | 55.44562 | 2.12173 | 32048 ft | 281 kts | 230° |
| 2026-05-04 05:26 | 55.43201 | 2.09718 | 32081 ft | 281 kts | 229° |
| 2026-05-04 05:27 | 55.41816 | 2.07266 | 32006 ft | 284 kts | 229° |
| 2026-05-04 05:28 | 55.31986 | 1.90233 | 32029 ft | 282 kts | 229° |
| 2026-05-04 05:29 | 55.30623 | 1.87834 | 32054 ft | 281 kts | 229° |
| 2026-05-04 05:29 | 55.29249 | 1.85387 | 32001 ft | 283 kts | 230° |
| 2026-05-04 05:29 | 55.27873 | 1.82903 | 31954 ft | 284 kts | 230° |
| 2026-05-04 05:29 | 55.26509 | 1.80402 | 31988 ft | 283 kts | 230° |
| 2026-05-04 05:31 | 55.17632 | 1.62270 | 31950 ft | 282 kts | 236° |
| 2026-05-04 05:31 | 55.16412 | 1.59527 | 31806 ft | 288 kts | 236° |
| 2026-05-04 05:32 | 55.15187 | 1.56766 | 31837 ft | 286 kts | 236° |
| 2026-05-04 05:32 | 55.13983 | 1.54043 | 31976 ft | 281 kts | 236° |
| 2026-05-04 05:32 | 55.12797 | 1.51346 | 32001 ft | 280 kts | 236° |
| 2026-05-04 05:33 | 55.10417 | 1.45832 | 31821 ft | 287 kts | 237° |
| 2026-05-04 05:33 | 55.09241 | 1.43051 | 31916 ft | 283 kts | 237° |
| 2026-05-04 05:33 | 55.08091 | 1.40297 | 32005 ft | 279 kts | 238° |
| 2026-05-04 05:33 | 55.06958 | 1.37533 | 31953 ft | 282 kts | 238° |
| 2026-05-04 05:34 | 55.05826 | 1.34713 | 31852 ft | 285 kts | 239° |
| 2026-05-04 05:34 | 55.04706 | 1.31863 | 31869 ft | 284 kts | 239° |
| 2026-05-04 05:34 | 55.03613 | 1.29023 | 31977 ft | 280 kts | 240° |
| 2026-05-04 05:34 | 55.02547 | 1.26190 | 31992 ft | 279 kts | 241° |
| 2026-05-04 05:35 | 55.01497 | 1.23325 | 31909 ft | 282 kts | 242° |
| 2026-05-04 05:35 | 55.00458 | 1.20407 | 31862 ft | 284 kts | 242° |
| 2026-05-04 05:35 | 54.99445 | 1.17476 | 31923 ft | 281 kts | 243° |
| 2026-05-04 05:35 | 54.98471 | 1.14552 | 32001 ft | 278 kts | 243° |
| 2026-05-04 05:36 | 54.97530 | 1.11617 | 31972 ft | 279 kts | 244° |
| 2026-05-04 05:36 | 54.96609 | 1.08622 | 31880 ft | 282 kts | 246° |
| 2026-05-04 05:36 | 54.95696 | 1.05575 | 31798 ft | 285 kts | 246° |
| 2026-05-04 05:36 | 54.94785 | 1.02513 | 31795 ft | 285 kts | 246° |
| 2026-05-04 05:37 | 54.93884 | 0.99461 | 31872 ft | 282 kts | 246° |
| 2026-05-04 05:37 | 54.92997 | 0.96428 | 31906 ft | 281 kts | 247° |
| 2026-05-04 05:37 | 54.92119 | 0.93386 | 31850 ft | 283 kts | 247° |
| 2026-05-04 05:38 | 54.90387 | 0.87214 | 31847 ft | 283 kts | 248° |
| 2026-05-04 05:38 | 54.89548 | 0.84140 | 31905 ft | 281 kts | 249° |
| 2026-05-04 05:38 | 54.88727 | 0.81059 | 31890 ft | 281 kts | 249° |
| 2026-05-04 05:38 | 54.87919 | 0.77951 | 31836 ft | 283 kts | 250° |
| 2026-05-04 05:39 | 54.87126 | 0.74817 | 31834 ft | 283 kts | 250° |
| 2026-05-04 05:39 | 54.85608 | 0.68561 | 31911 ft | 280 kts | 251° |
| 2026-05-04 05:39 | 54.84878 | 0.65416 | 31874 ft | 282 kts | 252° |
| 2026-05-04 05:40 | 54.83476 | 0.59061 | 31875 ft | 281 kts | 253° |
| 2026-05-04 05:40 | 54.82811 | 0.55885 | 31925 ft | 279 kts | 254° |
| 2026-05-04 05:40 | 54.82176 | 0.52744 | 31888 ft | 281 kts | 255° |
| 2026-05-04 05:41 | 54.81521 | 0.49524 | 31751 ft | 286 kts | 255° |
| 2026-05-04 05:41 | 54.80842 | 0.46264 | 31726 ft | 287 kts | 254° |
| 2026-05-04 05:41 | 54.80155 | 0.43039 | 31851 ft | 283 kts | 254° |
| 2026-05-04 05:41 | 54.79468 | 0.39870 | 31921 ft | 281 kts | 253° |
| 2026-05-04 05:42 | 54.78774 | 0.36688 | 31834 ft | 284 kts | 253° |
| 2026-05-04 05:42 | 54.78068 | 0.33458 | 31746 ft | 288 kts | 253° |
| 2026-05-04 05:42 | 54.77363 | 0.30227 | 31817 ft | 285 kts | 253° |
| 2026-05-04 05:42 | 54.76668 | 0.27044 | 31922 ft | 281 kts | 253° |
| 2026-05-04 05:43 | 54.76038 | 0.24143 | 31901 ft | 282 kts | 254° |
| 2026-05-04 05:43 | 54.75350 | 0.20930 | 31799 ft | 286 kts | 254° |
| 2026-05-04 05:43 | 54.74670 | 0.17685 | 31785 ft | 287 kts | 254° |
| 2026-05-04 05:45 | 51.38385 | 11.41201 | 31271 ft | 12987 kts | 26° |
| 2026-05-04 05:45 | 52.31463 | 12.61908 | 31280 ft | 23395 kts | 41° |
| 2026-05-04 05:47 | 52.14442 | 12.65561 | 42648 ft | 0 kts | 123° |
| 2026-05-04 05:47 | 51.98867 | 13.16473 | 62722 ft | 0 kts | 111° |
| 2026-05-04 05:47 | 51.85541 | 13.44995 | 48937 ft | 0 kts | 320° |
| 2026-05-04 05:48 | 51.86985 | 13.43136 | 45932 ft | 328 kts | 321° |
| 2026-05-04 05:49 | 51.88938 | 13.40396 | 42047 ft | 411 kts | 307° |
| 2026-05-04 05:49 | 51.90791 | 13.36722 | 40717 ft | 417 kts | 291° |
| 2026-05-04 05:49 | 51.91555 | 13.32486 | 41186 ft | 383 kts | 270° |
| 2026-05-04 05:49 | 51.91233 | 13.28271 | 40990 ft | 379 kts | 245° |
| 2026-05-04 05:51 | 51.75380 | 13.26812 | 40909 ft | 368 kts | 149° |
| 2026-05-04 05:51 | 51.73305 | 13.29153 | 40972 ft | 361 kts | 148° |
| 2026-05-04 05:52 | 51.69387 | 13.34048 | 40656 ft | 352 kts | 145° |
| 2026-05-04 05:52 | 51.67474 | 13.36585 | 39781 ft | 361 kts | 145° |
| 2026-05-04 05:52 | 51.65535 | 13.39194 | 39123 ft | 364 kts | 145° |
| 2026-05-04 05:54 | 51.50367 | 13.59882 | 38946 ft | 349 kts | 145° |
| 2026-05-04 05:55 | 51.46699 | 13.64868 | 38940 ft | 342 kts | 145° |
| 2026-05-04 05:55 | 51.43145 | 13.69689 | 38941 ft | 332 kts | 145° |
| 2026-05-04 05:56 | 51.39676 | 13.74384 | 38928 ft | 320 kts | 146° |
| 2026-05-04 05:56 | 51.36291 | 13.78922 | 38498 ft | 322 kts | 146° |
| 2026-05-04 05:57 | 51.34536 | 13.81215 | 38116 ft | 327 kts | 147° |
| 2026-05-04 05:57 | 51.32772 | 13.83482 | 38106 ft | 322 kts | 147° |
| 2026-05-04 05:57 | 51.31048 | 13.85678 | 38217 ft | 312 kts | 148° |
| 2026-05-04 05:57 | 51.29351 | 13.87815 | 38089 ft | 311 kts | 148° |
| 2026-05-04 05:58 | 51.27628 | 13.89964 | 37718 ft | 318 kts | 148° |
| 2026-05-04 05:58 | 51.25870 | 13.92153 | 37465 ft | 321 kts | 148° |
| 2026-05-04 05:58 | 51.22425 | 13.96442 | 37563 ft | 307 kts | 148° |
| 2026-05-04 05:59 | 51.20733 | 13.98534 | 37382 ft | 309 kts | 149° |
| 2026-05-04 05:59 | 51.19015 | 14.00633 | 37043 ft | 314 kts | 149° |
| 2026-05-04 05:59 | 51.17263 | 14.02741 | 36879 ft | 315 kts | 149° |
| 2026-05-04 05:59 | 51.15524 | 14.04805 | 36938 ft | 308 kts | 149° |
| 2026-05-04 06:00 | 51.12097 | 14.08765 | 36740 ft | 306 kts | 151° |
| 2026-05-04 06:00 | 51.10344 | 14.10724 | 36487 ft | 310 kts | 151° |
| 2026-05-04 06:00 | 51.08573 | 14.12667 | 36406 ft | 307 kts | 152° |
| 2026-05-04 06:01 | 51.05090 | 14.16417 | 36398 ft | 300 kts | 153° |
| 2026-05-04 06:03 | 50.93414 | 14.28513 | 35616 ft | 303 kts | 153° |
| 2026-05-04 06:03 | 50.91647 | 14.30327 | 35555 ft | 301 kts | 153° |
| 2026-05-04 06:05 | 50.79553 | 14.42936 | 35170 ft | 295 kts | 153° |
| 2026-05-04 06:05 | 50.76081 | 14.46484 | 34972 ft | 298 kts | 152° |
| 2026-05-04 06:05 | 50.74377 | 14.48305 | 34999 ft | 294 kts | 151° |
| 2026-05-04 06:06 | 50.72709 | 14.50173 | 34964 ft | 294 kts | 150° |
| 2026-05-04 06:06 | 50.71084 | 14.52085 | 34839 ft | 297 kts | 148° |
| 2026-05-04 06:06 | 50.69446 | 14.54092 | 34744 ft | 299 kts | 148° |
| 2026-05-04 06:06 | 50.67828 | 14.56139 | 34744 ft | 297 kts | 147° |
| 2026-05-04 06:07 | 50.66243 | 14.58197 | 34760 ft | 294 kts | 146° |
| 2026-05-04 06:07 | 50.64671 | 14.60275 | 34664 ft | 296 kts | 145° |
| 2026-05-04 06:07 | 50.63093 | 14.62393 | 34484 ft | 301 kts | 145° |
| 2026-05-04 06:07 | 50.61502 | 14.64563 | 34374 ft | 303 kts | 144° |
| 2026-05-04 06:08 | 50.59931 | 14.66735 | 34415 ft | 299 kts | 144° |
| 2026-05-04 06:08 | 50.58387 | 14.68889 | 34475 ft | 295 kts | 144° |
| 2026-05-04 06:08 | 50.56850 | 14.71028 | 34393 ft | 296 kts | 144° |
| 2026-05-04 06:08 | 50.55286 | 14.73177 | 34245 ft | 300 kts | 145° |
| 2026-05-04 06:09 | 50.53706 | 14.75319 | 34199 ft | 300 kts | 145° |
| 2026-05-04 06:09 | 50.52129 | 14.77431 | 34250 ft | 295 kts | 146° |
| 2026-05-04 06:11 | 50.40947 | 14.91530 | 33915 ft | 295 kts | 149° |
| 2026-05-04 06:11 | 50.39306 | 14.93474 | 33875 ft | 295 kts | 149° |
| 2026-05-04 06:13 | 50.27833 | 15.06674 | 33663 ft | 291 kts | 150° |
| 2026-05-04 06:14 | 50.17726 | 15.17037 | 33459 ft | 290 kts | 154° |
| 2026-05-04 06:14 | 50.16006 | 15.18659 | 33487 ft | 288 kts | 154° |
| 2026-05-04 06:15 | 50.14292 | 15.20248 | 33489 ft | 286 kts | 155° |
| 2026-05-04 06:15 | 50.12567 | 15.21814 | 33426 ft | 288 kts | 155° |
| 2026-05-04 06:15 | 50.10826 | 15.23359 | 33368 ft | 288 kts | 156° |
| 2026-05-04 06:15 | 50.09078 | 15.24876 | 33371 ft | 287 kts | 156° |
| 2026-05-04 06:16 | 50.07329 | 15.26364 | 33367 ft | 286 kts | 157° |
| 2026-05-04 06:16 | 50.05572 | 15.27833 | 33309 ft | 287 kts | 157° |
| 2026-05-04 06:16 | 50.03802 | 15.29278 | 33260 ft | 288 kts | 158° |
| 2026-05-04 06:16 | 50.02022 | 15.30686 | 33278 ft | 286 kts | 159° |
| 2026-05-04 06:17 | 50.00241 | 15.32043 | 33296 ft | 284 kts | 160° |
| 2026-05-04 06:17 | 49.98453 | 15.33348 | 33277 ft | 284 kts | 161° |
| 2026-05-04 06:17 | 49.96646 | 15.34603 | 33236 ft | 284 kts | 162° |
| 2026-05-04 06:17 | 49.94827 | 15.35800 | 33202 ft | 284 kts | 163° |
| 2026-05-04 06:18 | 49.92999 | 15.36947 | 33213 ft | 282 kts | 163° |
| 2026-05-04 06:18 | 49.91169 | 15.38043 | 33215 ft | 281 kts | 165° |
| 2026-05-04 06:18 | 49.89331 | 15.39088 | 33174 ft | 282 kts | 166° |
| 2026-05-04 06:20 | 49.76239 | 15.45044 | 33074 ft | 278 kts | 172° |
| 2026-05-04 06:20 | 49.74352 | 15.45671 | 33068 ft | 277 kts | 173° |
| 2026-05-04 06:21 | 49.66759 | 15.47787 | 33040 ft | 275 kts | 176° |
| 2026-05-04 06:21 | 49.64861 | 15.48227 | 32992 ft | 277 kts | 176° |
| 2026-05-04 06:22 | 49.62940 | 15.48621 | 32897 ft | 280 kts | 177° |
| 2026-05-04 06:22 | 49.61005 | 15.48955 | 32893 ft | 279 kts | 179° |
| 2026-05-04 06:25 | 49.36095 | 15.48799 | 32780 ft | 276 kts | 188° |
| 2026-05-04 06:25 | 49.34185 | 15.48568 | 32802 ft | 275 kts | 189° |
| 2026-05-04 06:26 | 49.32310 | 15.48311 | 32829 ft | 273 kts | 189° |
| 2026-05-04 06:26 | 49.30393 | 15.48015 | 32808 ft | 274 kts | 190° |
| 2026-05-04 06:26 | 49.28522 | 15.47691 | 32782 ft | 275 kts | 191° |
| 2026-05-04 06:26 | 49.26627 | 15.47320 | 32787 ft | 274 kts | 192° |
| 2026-05-04 06:27 | 49.19177 | 15.45175 | 32753 ft | 273 kts | 198° |
| 2026-05-04 06:28 | 49.17347 | 15.44431 | 32778 ft | 271 kts | 199° |
| 2026-05-04 06:28 | 49.15547 | 15.43627 | 32798 ft | 269 kts | 200° |
| 2026-05-04 06:28 | 49.13754 | 15.42768 | 32761 ft | 271 kts | 201° |
| 2026-05-04 06:28 | 49.11961 | 15.41860 | 32704 ft | 272 kts | 202° |
| 2026-05-04 06:29 | 49.10173 | 15.40907 | 32722 ft | 271 kts | 203° |
| 2026-05-04 06:29 | 49.08407 | 15.39931 | 32778 ft | 269 kts | 204° |
| 2026-05-04 06:29 | 49.06657 | 15.38928 | 32781 ft | 269 kts | 204° |
| 2026-05-04 06:29 | 49.04909 | 15.37895 | 32726 ft | 271 kts | 205° |
| 2026-05-04 06:30 | 49.03156 | 15.36832 | 32707 ft | 271 kts | 205° |
| 2026-05-04 06:30 | 49.01416 | 15.35744 | 32760 ft | 269 kts | 206° |
| 2026-05-04 06:30 | 48.99703 | 15.34633 | 32792 ft | 267 kts | 207° |
| 2026-05-04 06:30 | 48.97998 | 15.33485 | 32757 ft | 269 kts | 208° |
| 2026-05-04 06:31 | 48.96294 | 15.32290 | 32705 ft | 270 kts | 208° |
| 2026-05-04 06:31 | 48.94598 | 15.31067 | 32726 ft | 269 kts | 209° |
| 2026-05-04 06:31 | 48.92916 | 15.29833 | 32755 ft | 268 kts | 209° |
| 2026-05-04 06:31 | 48.91242 | 15.28594 | 32747 ft | 268 kts | 210° |
| 2026-05-04 06:32 | 48.89565 | 15.27338 | 32705 ft | 270 kts | 210° |
| 2026-05-04 06:33 | 48.77922 | 15.18332 | 32769 ft | 267 kts | 211° |
| 2026-05-04 06:34 | 48.76279 | 15.17012 | 32758 ft | 268 kts | 211° |
| 2026-05-04 06:34 | 48.74638 | 15.15671 | 32723 ft | 269 kts | 212° |
| 2026-05-04 06:34 | 48.72997 | 15.14310 | 32720 ft | 269 kts | 212° |
| 2026-05-04 06:34 | 48.71362 | 15.12943 | 32733 ft | 268 kts | 212° |
| 2026-05-04 06:35 | 48.69735 | 15.11566 | 32740 ft | 268 kts | 213° |
| 2026-05-04 06:36 | 48.58676 | 15.01179 | 32745 ft | 267 kts | 217° |
| 2026-05-04 06:37 | 48.57146 | 14.99590 | 32765 ft | 267 kts | 218° |
| 2026-05-04 06:37 | 48.55632 | 14.97983 | 32786 ft | 266 kts | 218° |
| 2026-05-04 06:37 | 48.54129 | 14.96355 | 32771 ft | 266 kts | 219° |
| 2026-05-04 06:37 | 48.52635 | 14.94695 | 32734 ft | 268 kts | 220° |
| 2026-05-04 06:38 | 48.51148 | 14.92996 | 32723 ft | 268 kts | 220° |
| 2026-05-04 06:38 | 48.49677 | 14.91280 | 32757 ft | 267 kts | 221° |
| 2026-05-04 06:40 | 48.39539 | 14.79101 | 32767 ft | 267 kts | 221° |
| 2026-05-04 06:40 | 48.38102 | 14.77383 | 32786 ft | 267 kts | 221° |
| 2026-05-04 06:40 | 48.36646 | 14.75684 | 32876 ft | 264 kts | 220° |
| 2026-05-04 06:40 | 48.35176 | 14.74039 | 32882 ft | 264 kts | 219° |
| 2026-05-04 06:41 | 48.33677 | 14.72415 | 32791 ft | 268 kts | 219° |
| 2026-05-04 06:41 | 48.32149 | 14.70795 | 32743 ft | 270 kts | 218° |
| 2026-05-04 06:41 | 48.30613 | 14.69202 | 32828 ft | 267 kts | 218° |
| 2026-05-04 06:41 | 48.29084 | 14.67652 | 32917 ft | 264 kts | 217° |
| 2026-05-04 06:42 | 48.27549 | 14.66121 | 32884 ft | 266 kts | 217° |
| 2026-05-04 06:42 | 48.25992 | 14.64585 | 32792 ft | 270 kts | 217° |
| 2026-05-04 06:42 | 48.24420 | 14.63049 | 32808 ft | 269 kts | 216° |
| 2026-05-04 06:44 | 48.13535 | 14.52414 | 32879 ft | 267 kts | 217° |
| 2026-05-04 06:44 | 48.11985 | 14.50846 | 32796 ft | 270 kts | 218° |
| 2026-05-04 06:44 | 48.10441 | 14.49248 | 32827 ft | 269 kts | 218° |
| 2026-05-04 06:45 | 48.08928 | 14.47639 | 32921 ft | 265 kts | 219° |
| 2026-05-04 06:45 | 48.07446 | 14.46005 | 32940 ft | 265 kts | 220° |
| 2026-05-04 06:45 | 48.05980 | 14.44321 | 32880 ft | 267 kts | 221° |
| 2026-05-04 06:45 | 48.04526 | 14.42578 | 32840 ft | 268 kts | 221° |
| 2026-05-04 06:46 | 48.03528 | 14.41491 | 32856 ft | 268 kts | 216° |
| 2026-05-04 06:46 | 48.02361 | 14.40469 | 32868 ft | 270 kts | 210° |